createdAt,value
2019-02-21T00:01:24.550Z,5.27
2019-02-21T00:03:50.925Z,4.90
2019-02-21T00:06:17.228Z,5.23
2019-02-21T00:08:45.070Z,5.30
2019-02-21T00:11:11.386Z,4.77
2019-02-21T00:13:37.663Z,5.17
2019-02-21T00:16:05.513Z,4.80
2019-02-21T00:18:32.263Z,5.17
2019-02-21T00:20:58.564Z,4.97
2019-02-21T00:23:24.858Z,5.63
2019-02-21T00:25:51.141Z,4.87
2019-02-21T00:28:17.547Z,5.35
2019-02-21T00:30:43.823Z,5.53
2019-02-21T00:33:10.130Z,5.00
2019-02-21T00:35:36.414Z,4.95
2019-02-21T00:38:02.723Z,5.08
2019-02-21T00:40:30.223Z,4.97
2019-02-21T00:42:56.506Z,5.23
2019-02-21T00:45:22.797Z,5.17
2019-02-21T00:47:49.339Z,5.13
2019-02-21T00:50:15.686Z,4.83
2019-02-21T00:52:42.062Z,5.03
2019-02-21T00:55:08.371Z,4.80
2019-02-21T00:57:34.643Z,4.93
2019-02-21T01:00:01.094Z,4.65
2019-02-21T01:02:27.383Z,5.30
2019-02-21T01:04:53.690Z,4.78
2019-02-21T01:07:19.974Z,5.00
2019-02-21T01:09:46.371Z,4.45
2019-02-21T01:12:12.679Z,5.65
2019-02-21T01:14:38.967Z,5.35
2019-02-21T01:17:05.282Z,4.63
2019-02-21T01:19:31.554Z,5.20
2019-02-21T01:21:58.182Z,4.87
2019-02-21T01:24:24.824Z,5.37
2019-02-21T01:26:51.124Z,5.27
2019-02-21T01:29:17.411Z,5.15
2019-02-21T01:31:44.019Z,5.53
2019-02-21T01:34:10.287Z,5.47
2019-02-21T01:36:36.842Z,4.93
2019-02-21T01:39:04.946Z,5.23
2019-02-21T01:41:32.438Z,5.90
2019-02-21T01:43:58.742Z,5.28
2019-02-21T01:46:25.384Z,5.50
2019-02-21T01:48:51.782Z,6.00
2019-02-21T01:51:18.061Z,5.17
2019-02-21T01:53:44.394Z,4.97
2019-02-21T01:56:11.013Z,5.53
2019-02-21T01:58:37.303Z,5.05
2019-02-21T02:01:08.697Z,4.55
2019-02-21T02:03:31.913Z,5.30
2019-02-21T02:05:58.186Z,5.47
2019-02-21T02:08:24.574Z,5.20
2019-02-21T02:10:51.254Z,5.27
2019-02-21T02:13:24.538Z,5.37
2019-02-21T02:15:45.745Z,4.80
2019-02-21T02:18:12.037Z,5.40
2019-02-21T02:20:38.425Z,4.83
2019-02-21T02:23:05.058Z,5.47
2019-02-21T02:25:31.818Z,6.12
2019-02-21T02:27:58.104Z,6.70
2019-02-21T02:30:24.418Z,6.87
2019-02-21T02:32:50.838Z,7.87
2019-02-21T02:35:17.642Z,7.80
2019-02-21T02:37:46.715Z,7.55
2019-02-21T02:40:13.276Z,7.23
2019-02-21T02:42:39.565Z,7.08
2019-02-21T02:45:06.551Z,7.00
2019-02-21T02:47:32.845Z,6.22
2019-02-21T02:49:59.647Z,6.28
2019-02-21T02:52:25.951Z,5.67
2019-02-21T02:54:52.265Z,6.10
2019-02-21T02:57:18.563Z,5.23
2019-02-21T02:59:45.151Z,5.73
2019-02-21T03:02:11.573Z,5.43
2019-02-21T03:04:38.095Z,5.40
2019-02-21T03:07:04.463Z,5.03
2019-02-21T03:09:31.087Z,5.23
2019-02-21T03:11:57.406Z,5.80
2019-02-21T03:14:24.058Z,5.07
2019-02-21T03:16:50.364Z,5.43
2019-02-21T03:19:16.634Z,5.23
2019-02-21T03:21:49.891Z,5.70
2019-02-21T03:24:16.550Z,5.50
2019-02-21T03:26:43.457Z,5.40
2019-02-21T03:29:09.911Z,5.50
2019-02-21T03:31:53.333Z,5.43
2019-02-21T03:34:04.899Z,5.03
2019-02-21T03:36:31.335Z,5.77
2019-02-21T03:38:57.905Z,5.03
2019-02-21T03:41:24.327Z,5.27
2019-02-21T03:43:50.594Z,5.33
2019-02-21T03:46:16.881Z,5.70
2019-02-21T03:48:43.274Z,5.40
2019-02-21T03:51:10.656Z,5.40
2019-02-21T03:53:37.783Z,5.73
2019-02-21T03:56:04.495Z,5.77
2019-02-21T03:58:30.802Z,6.53
2019-02-21T04:00:57.468Z,5.47
2019-02-21T04:03:24.079Z,5.60
2019-02-21T04:05:50.550Z,5.67
2019-02-21T04:08:16.856Z,5.13
2019-02-21T04:10:43.506Z,6.10
2019-02-21T04:13:10.246Z,5.37
2019-02-21T04:15:36.641Z,5.70
2019-02-21T04:18:03.220Z,5.73
2019-02-21T04:20:29.619Z,5.30
2019-02-21T04:22:56.008Z,5.73
2019-02-21T04:25:22.429Z,5.50
2019-02-21T04:27:49.259Z,6.13
2019-02-21T04:30:15.663Z,5.97
2019-02-21T04:32:41.970Z,5.70
2019-02-21T04:35:08.375Z,5.87
2019-02-21T04:37:34.681Z,5.50
2019-02-21T04:40:01.096Z,5.50
2019-02-21T04:42:27.469Z,5.90
2019-02-21T04:44:53.847Z,5.63
2019-02-21T04:47:20.133Z,5.20
2019-02-21T04:49:46.419Z,6.00
2019-02-21T04:52:19.535Z,5.77
2019-02-21T04:54:46.301Z,5.37
2019-02-21T04:57:12.699Z,6.20
2019-02-21T04:59:39.472Z,6.07
2019-02-21T05:02:05.865Z,5.77
2019-02-21T05:04:32.154Z,6.40
2019-02-21T05:06:58.650Z,5.37
2019-02-21T05:09:27.034Z,5.57
2019-02-21T05:11:53.210Z,6.00
2019-02-21T05:14:19.524Z,5.60
2019-02-21T05:16:45.903Z,6.40
2019-02-21T05:19:12.306Z,5.67
2019-02-21T05:21:39.802Z,5.27
2019-02-21T05:24:06.119Z,6.00
2019-02-21T05:26:40.167Z,7.30
2019-02-21T05:29:08.489Z,5.97
2019-02-21T05:31:46.259Z,5.97
2019-02-21T05:34:17.207Z,5.70
2019-02-21T05:36:48.495Z,5.73
2019-02-21T05:39:33.632Z,4.87
2019-02-21T05:42:04.874Z,5.37
2019-02-21T05:44:33.720Z,5.57
2019-02-21T05:47:08.256Z,5.43
2019-02-21T05:49:42.772Z,4.97
2019-02-21T05:52:11.049Z,5.40
2019-02-21T05:54:39.552Z,6.17
2019-02-21T05:57:10.866Z,5.80
2019-02-21T05:59:48.490Z,5.03
2019-02-21T06:02:25.623Z,5.30
2019-02-21T06:05:00.003Z,5.47
2019-02-21T06:07:28.287Z,5.57
2019-02-21T06:10:07.194Z,5.77
2019-02-21T06:12:38.430Z,5.80
2019-02-21T06:15:06.946Z,5.83
2019-02-21T06:17:50.264Z,5.97
2019-02-21T06:20:35.059Z,6.23
2019-02-21T06:23:09.298Z,5.93
2019-02-21T06:25:50.838Z,5.90
2019-02-21T06:28:13.833Z,6.30
2019-02-21T06:30:43.347Z,5.73
2019-02-21T06:33:09.946Z,6.77
2019-02-21T06:35:36.322Z,9.03
2019-02-21T06:38:03.084Z,8.57
2019-02-21T06:40:29.456Z,10.27
2019-02-21T06:42:55.850Z,7.73
2019-02-21T06:45:22.131Z,6.77
2019-02-21T06:47:48.532Z,6.77
2019-02-21T06:50:14.816Z,6.63
2019-02-21T06:52:41.126Z,6.30
2019-02-21T06:55:07.607Z,6.73
2019-02-21T06:57:33.937Z,5.70
2019-02-21T07:00:00.342Z,5.77
2019-02-21T07:02:28.126Z,6.10
2019-02-21T07:04:56.622Z,6.20
2019-02-21T07:07:23.454Z,5.70
2019-02-21T07:09:49.732Z,5.53
2019-02-21T07:12:16.163Z,5.87
2019-02-21T07:14:42.550Z,6.33
2019-02-21T07:17:08.839Z,6.00
2019-02-21T07:19:35.153Z,7.07
2019-02-21T07:22:01.865Z,6.83
2019-02-21T07:24:28.818Z,7.03
2019-02-21T07:26:55.117Z,7.57
2019-02-21T07:29:21.539Z,7.67
2019-02-21T07:31:49.402Z,9.30
2019-02-21T07:34:16.039Z,8.47
2019-02-21T07:36:42.315Z,8.47
2019-02-21T07:39:16.830Z,7.37
2019-02-21T07:41:37.079Z,7.67
2019-02-21T07:44:11.756Z,8.13
2019-02-21T07:46:32.448Z,7.33
2019-02-21T07:48:58.983Z,7.17
2019-02-21T07:51:25.277Z,8.47
2019-02-21T07:53:51.546Z,7.70
2019-02-21T07:56:18.157Z,7.43
2019-02-21T07:58:44.467Z,7.60
2019-02-21T08:01:10.862Z,7.97
2019-02-21T08:03:44.244Z,8.37
2019-02-21T08:06:05.644Z,7.77
2019-02-21T08:08:32.575Z,8.67
2019-02-21T08:10:59.130Z,7.30
2019-02-21T08:13:25.420Z,7.60
2019-02-21T08:15:51.992Z,9.17
2019-02-21T08:18:18.391Z,8.00
2019-02-21T08:20:44.670Z,8.30
2019-02-21T08:23:11.291Z,8.23
2019-02-21T08:25:37.567Z,7.93
2019-02-21T08:28:04.071Z,8.53
2019-02-21T08:30:32.860Z,8.17
2019-02-21T08:33:19.351Z,8.00
2019-02-21T08:35:45.709Z,8.03
2019-02-21T08:38:12.263Z,7.93
2019-02-21T08:40:39.163Z,8.00
2019-02-21T08:43:05.541Z,8.97
2019-02-21T08:45:32.150Z,8.20
2019-02-21T08:47:58.792Z,8.40
2019-02-21T08:50:25.168Z,8.17
2019-02-21T08:52:51.471Z,9.13
2019-02-21T08:55:19.190Z,8.53
2019-02-21T08:57:45.504Z,9.20
2019-02-21T09:00:14.139Z,8.90
2019-02-21T09:02:40.743Z,8.20
2019-02-21T09:05:10.331Z,7.83
2019-02-21T09:07:37.832Z,7.80
2019-02-21T09:10:07.620Z,8.03
2019-02-21T09:12:34.572Z,8.10
2019-02-21T09:15:00.975Z,7.90
2019-02-21T09:17:27.241Z,8.40
2019-02-21T09:19:53.897Z,8.20
2019-02-21T09:22:20.299Z,8.13
2019-02-21T09:24:46.635Z,8.33
2019-02-21T09:27:14.446Z,9.30
2019-02-21T09:29:40.744Z,8.30
2019-02-21T09:32:07.499Z,7.63
2019-02-21T09:34:33.799Z,8.47
2019-02-21T09:37:00.179Z,8.67
2019-02-21T09:39:26.455Z,8.23
2019-02-21T09:41:52.854Z,9.77
2019-02-21T09:44:19.231Z,8.07
2019-02-21T09:46:45.532Z,8.40
2019-02-21T09:49:11.798Z,7.83
2019-02-21T09:51:38.094Z,7.63
2019-02-21T09:54:04.562Z,7.37
2019-02-21T09:56:31.001Z,8.27
2019-02-21T09:58:57.467Z,8.13
2019-02-21T10:01:23.789Z,7.90
2019-02-21T10:03:50.259Z,8.30
2019-02-21T10:06:16.956Z,7.87
2019-02-21T10:08:43.704Z,8.63
2019-02-21T10:11:11.500Z,8.33
2019-02-21T10:13:37.988Z,8.03
2019-02-21T10:16:04.902Z,7.93
2019-02-21T10:18:31.792Z,8.30
2019-02-21T10:20:58.286Z,8.00
2019-02-21T10:23:24.720Z,8.13
2019-02-21T10:25:51.291Z,7.50
2019-02-21T10:28:17.932Z,8.47
2019-02-21T10:30:44.206Z,9.47
2019-02-21T10:33:10.898Z,8.97
2019-02-21T10:35:37.166Z,9.10
2019-02-21T10:38:03.675Z,8.33
2019-02-21T10:40:30.297Z,9.50
2019-02-21T10:42:56.698Z,9.60
2019-02-21T10:45:23.080Z,8.70
2019-02-21T10:47:49.474Z,8.63
2019-02-21T10:50:17.546Z,9.63
2019-02-21T10:52:43.938Z,9.30
2019-02-21T10:55:10.863Z,8.67
2019-02-21T10:57:37.270Z,9.50
2019-02-21T11:00:10.579Z,8.77
2019-02-21T11:02:37.523Z,10.13
2019-02-21T11:05:06.903Z,9.40
2019-02-21T11:07:34.175Z,10.07
2019-02-21T11:10:00.673Z,10.17
2019-02-21T11:12:27.080Z,10.70
2019-02-21T11:14:53.478Z,8.93
2019-02-21T11:17:19.843Z,9.70
2019-02-21T11:19:46.334Z,9.57
2019-02-21T11:22:12.617Z,9.13
2019-02-21T11:24:39.023Z,10.57
2019-02-21T11:27:05.318Z,10.60
2019-02-21T11:29:31.609Z,12.13
2019-02-21T11:31:58.336Z,11.03
2019-02-21T11:34:24.759Z,11.17
2019-02-21T11:36:51.040Z,10.30
2019-02-21T11:39:17.439Z,10.83
2019-02-21T11:41:43.806Z,11.07
2019-02-21T11:44:10.102Z,11.10
2019-02-21T11:46:36.473Z,11.47
2019-02-21T11:49:03.573Z,12.60
2019-02-21T11:51:30.019Z,11.30
2019-02-21T11:53:56.747Z,11.37
2019-02-21T11:56:23.595Z,11.73
2019-02-21T11:58:50.319Z,11.23
2019-02-21T12:01:16.693Z,14.20
2019-02-21T12:03:43.014Z,11.27
2019-02-21T12:06:09.820Z,12.73
2019-02-21T12:08:36.292Z,14.23
2019-02-21T12:11:02.746Z,15.40
2019-02-21T12:13:29.259Z,13.03
2019-02-21T12:15:55.974Z,12.17
2019-02-21T12:18:22.603Z,11.63
2019-02-21T12:20:49.444Z,12.87
2019-02-21T12:23:17.749Z,13.67
2019-02-21T12:25:44.217Z,14.87
2019-02-21T12:28:10.726Z,15.30
2019-02-21T12:30:37.052Z,14.77
2019-02-21T12:33:03.505Z,15.30
2019-02-21T12:35:30.331Z,14.93
2019-02-21T12:37:56.988Z,15.47
2019-02-21T12:40:23.671Z,14.37
2019-02-21T12:42:50.167Z,15.37
2019-02-21T12:45:21.525Z,14.10
2019-02-21T12:47:53.194Z,16.13
2019-02-21T12:50:16.317Z,14.30
2019-02-21T12:52:42.660Z,13.93
2019-02-21T12:55:10.126Z,15.40
2019-02-21T12:57:36.759Z,14.73
2019-02-21T13:00:06.987Z,13.53
2019-02-21T13:02:33.720Z,13.57
2019-02-21T13:05:00.304Z,13.73
2019-02-21T13:07:28.167Z,13.67
2019-02-21T13:09:54.560Z,14.03
2019-02-21T13:12:20.962Z,12.60
2019-02-21T13:14:47.424Z,13.33
2019-02-21T13:17:13.722Z,13.50
2019-02-21T13:19:40.091Z,14.30
2019-02-21T13:22:06.397Z,13.83
2019-02-21T13:24:32.846Z,13.40
2019-02-21T13:26:59.135Z,13.77
2019-02-21T13:29:25.978Z,13.97
2019-02-21T13:31:52.598Z,14.17
2019-02-21T13:34:18.998Z,13.60
2019-02-21T13:36:46.446Z,13.43
2019-02-21T13:39:12.870Z,13.27
2019-02-21T13:41:39.299Z,13.50
2019-02-21T13:44:05.649Z,12.90
2019-02-21T13:46:37.271Z,14.03
2019-02-21T13:49:00.602Z,13.20
2019-02-21T13:51:26.991Z,13.30
2019-02-21T13:53:53.413Z,13.87
2019-02-21T13:56:19.858Z,13.53
2019-02-21T13:58:47.406Z,12.60
2019-02-21T14:01:14.604Z,14.20
2019-02-21T14:03:42.319Z,13.17
2019-02-21T14:06:09.019Z,13.20
2019-02-21T14:08:35.487Z,12.27
2019-02-21T14:11:01.887Z,13.70
2019-02-21T14:13:28.264Z,12.50
2019-02-21T14:15:54.595Z,12.77
2019-02-21T14:18:20.943Z,13.67
2019-02-21T14:20:47.363Z,13.70
2019-02-21T14:23:13.797Z,13.03
2019-02-21T14:25:41.201Z,13.07
2019-02-21T14:28:08.079Z,12.30
2019-02-21T14:30:34.623Z,12.70
2019-02-21T14:33:01.065Z,13.17
2019-02-21T14:35:27.656Z,12.57
2019-02-21T14:37:54.151Z,12.77
2019-02-21T14:40:20.460Z,13.47
2019-02-21T14:42:47.292Z,13.07
2019-02-21T14:45:18.097Z,13.57
2019-02-21T14:47:44.505Z,13.23
2019-02-21T14:50:11.308Z,13.23
2019-02-21T14:52:37.755Z,13.50
2019-02-21T14:55:07.004Z,14.10
2019-02-21T14:57:40.973Z,13.27
2019-02-21T15:00:08.978Z,13.20
2019-02-21T15:02:35.454Z,13.97
2019-02-21T15:05:02.538Z,13.87
2019-02-21T15:07:28.938Z,14.60
2019-02-21T15:09:55.647Z,13.57
2019-02-21T15:12:22.006Z,13.00
2019-02-21T15:14:48.360Z,14.47
2019-02-21T15:17:15.151Z,14.70
2019-02-21T15:19:41.637Z,13.47
2019-02-21T15:22:08.063Z,14.73
2019-02-21T15:24:34.763Z,14.50
2019-02-21T15:27:08.418Z,13.57
2019-02-21T15:29:29.442Z,13.23
2019-02-21T15:31:55.735Z,13.97
2019-02-21T15:34:22.302Z,12.70
2019-02-21T15:36:49.731Z,13.67
2019-02-21T15:39:16.064Z,12.63
2019-02-21T15:41:42.755Z,12.97
2019-02-21T15:44:09.135Z,12.10
2019-02-21T15:46:35.592Z,11.90
2019-02-21T15:49:02.076Z,11.23
2019-02-21T15:51:28.559Z,11.73
2019-02-21T15:53:54.962Z,12.30
2019-02-21T15:56:21.528Z,11.63
2019-02-21T15:58:47.938Z,12.60
2019-02-21T16:01:14.425Z,11.67
2019-02-21T16:03:42.457Z,12.37
2019-02-21T16:06:09.182Z,11.47
2019-02-21T16:08:35.647Z,11.97
2019-02-21T16:11:04.092Z,12.23
2019-02-21T16:13:30.715Z,11.87
2019-02-21T16:15:57.626Z,13.20
2019-02-21T16:18:24.371Z,13.23
2019-02-21T16:20:52.940Z,14.77
2019-02-21T16:23:19.448Z,13.90
2019-02-21T16:25:45.934Z,14.50
2019-02-21T16:28:12.313Z,13.63
2019-02-21T16:30:39.027Z,14.17
2019-02-21T16:33:05.432Z,12.73
2019-02-21T16:35:31.927Z,12.80
2019-02-21T16:37:58.814Z,13.20
2019-02-21T16:40:25.566Z,12.67
2019-02-21T16:42:52.270Z,14.30
2019-02-21T16:45:19.787Z,12.90
2019-02-21T16:47:46.235Z,13.57
2019-02-21T16:50:13.400Z,13.93
2019-02-21T16:52:40.175Z,12.57
2019-02-21T16:55:09.784Z,11.50
2019-02-21T16:57:36.426Z,12.57
2019-02-21T17:00:23.254Z,12.30
2019-02-21T17:02:49.927Z,12.80
2019-02-21T17:05:16.600Z,11.97
2019-02-21T17:07:43.200Z,14.10
2019-02-21T17:10:12.663Z,12.70
2019-02-21T17:12:39.299Z,12.67
2019-02-21T17:15:15.988Z,14.07
2019-02-21T17:17:42.623Z,13.27
2019-02-21T17:20:14.182Z,12.77
2019-02-21T17:22:40.640Z,13.23
2019-02-21T17:25:09.801Z,12.53
2019-02-21T17:27:36.283Z,11.93
2019-02-21T17:30:05.285Z,12.27
2019-02-21T17:32:32.656Z,13.67
2019-02-21T17:34:59.098Z,12.97
2019-02-21T17:37:25.544Z,13.27
2019-02-21T17:39:52.307Z,12.07
2019-02-21T17:42:18.662Z,13.57
2019-02-21T17:44:45.278Z,12.43
2019-02-21T17:47:11.618Z,11.77
2019-02-21T17:49:38.459Z,10.90
2019-02-21T17:52:04.954Z,10.43
2019-02-21T17:54:31.546Z,10.90
2019-02-21T17:56:57.993Z,11.23
2019-02-21T17:59:24.311Z,11.03
2019-02-21T18:01:50.762Z,12.07
2019-02-21T18:04:17.111Z,12.33
2019-02-21T18:06:43.639Z,12.63
2019-02-21T18:09:10.138Z,10.70
2019-02-21T18:11:36.966Z,11.03
2019-02-21T18:14:04.200Z,10.13
2019-02-21T18:16:30.905Z,9.60
2019-02-21T18:18:57.490Z,9.47
2019-02-21T18:21:23.793Z,10.03
2019-02-21T18:23:50.734Z,10.63
2019-02-21T18:26:17.715Z,9.83
2019-02-21T18:28:44.340Z,10.33
2019-02-21T18:31:16.371Z,10.10
2019-02-21T18:33:42.683Z,10.70
2019-02-21T18:36:09.235Z,14.37
2019-02-21T18:38:35.802Z,11.67
2019-02-21T18:41:02.291Z,11.63
2019-02-21T18:43:29.766Z,12.23
2019-02-21T18:45:57.608Z,11.60
2019-02-21T18:48:24.147Z,11.53
2019-02-21T18:50:50.492Z,12.00
2019-02-21T18:53:16.893Z,11.00
2019-02-21T18:55:43.362Z,11.43
2019-02-21T18:58:10.166Z,12.40
2019-02-21T19:00:37.024Z,12.47
2019-02-21T19:03:03.418Z,11.97
2019-02-21T19:05:35.738Z,12.70
2019-02-21T19:08:05.186Z,12.17
2019-02-21T19:10:27.633Z,12.80
2019-02-21T19:12:54.239Z,12.20
2019-02-21T19:15:21.634Z,11.67
2019-02-21T19:17:48.227Z,13.00
2019-02-21T19:20:16.346Z,13.07
2019-02-21T19:22:42.826Z,13.23
2019-02-21T19:25:10.411Z,13.53
2019-02-21T19:27:37.739Z,13.37
2019-02-21T19:30:17.075Z,12.17
2019-02-21T19:32:43.910Z,14.50
2019-02-21T19:35:10.557Z,14.53
2019-02-21T19:37:37.384Z,19.73
2019-02-21T19:40:07.371Z,20.47
2019-02-21T19:42:33.766Z,14.97
2019-02-21T19:45:00.305Z,13.50
2019-02-21T19:47:27.055Z,13.67
2019-02-21T19:49:53.622Z,14.73
2019-02-21T19:52:20.391Z,13.33
2019-02-21T19:54:47.276Z,13.47
2019-02-21T19:57:13.777Z,13.53
2019-02-21T19:59:40.359Z,13.63
2019-02-21T20:02:06.731Z,15.17
2019-02-21T20:04:33.206Z,15.53
2019-02-21T20:06:59.605Z,14.60
2019-02-21T20:09:26.331Z,16.53
2019-02-21T20:11:52.797Z,15.73
2019-02-21T20:14:19.425Z,14.60
2019-02-21T20:16:46.359Z,15.83
2019-02-21T20:19:12.739Z,17.20
2019-02-21T20:21:39.172Z,16.27
2019-02-21T20:24:05.678Z,33.30
2019-02-21T20:26:32.155Z,20.73
2019-02-21T20:28:58.546Z,18.73
2019-02-21T20:31:24.986Z,16.07
2019-02-21T20:33:51.682Z,16.77
2019-02-21T20:36:18.620Z,14.93
2019-02-21T20:38:45.099Z,14.90
2019-02-21T20:41:12.119Z,14.73
2019-02-21T20:43:38.470Z,14.53
2019-02-21T20:46:05.503Z,13.77
2019-02-21T20:48:32.053Z,14.50
2019-02-21T20:50:58.607Z,13.73
2019-02-21T20:53:24.936Z,14.17
2019-02-21T20:55:51.272Z,13.50
2019-02-21T20:58:17.910Z,13.80
2019-02-21T21:00:44.438Z,14.60
2019-02-21T21:03:10.972Z,13.90
2019-02-21T21:05:37.863Z,12.87
2019-02-21T21:08:04.372Z,14.13
2019-02-21T21:10:31.161Z,14.97
2019-02-21T21:12:57.893Z,14.87
2019-02-21T21:15:24.378Z,14.43
2019-02-21T21:17:50.687Z,14.87
2019-02-21T21:20:17.524Z,14.33
2019-02-21T21:22:44.558Z,14.73
2019-02-21T21:25:15.171Z,13.97
2019-02-21T21:27:42.147Z,14.30
2019-02-21T21:30:12.071Z,15.03
2019-02-21T21:32:40.579Z,15.53
2019-02-21T21:35:07.449Z,15.03
2019-02-21T21:37:35.563Z,16.07
2019-02-21T21:40:03.616Z,15.13
2019-02-21T21:42:30.931Z,14.73
2019-02-21T21:44:57.619Z,15.40
2019-02-21T21:47:23.995Z,15.77
2019-02-21T21:49:50.670Z,14.40
2019-02-21T21:52:17.166Z,15.10
2019-02-21T21:54:43.483Z,16.70
2019-02-21T21:57:10.182Z,16.43
2019-02-21T21:59:36.750Z,14.83
2019-02-21T22:02:03.668Z,14.37
2019-02-21T22:04:30.531Z,15.23
2019-02-21T22:06:57.072Z,14.70
2019-02-21T22:09:24.560Z,15.73
2019-02-21T22:11:50.867Z,15.93
2019-02-21T22:14:17.291Z,16.53
2019-02-21T22:16:43.847Z,16.07
2019-02-21T22:19:10.543Z,16.80
2019-02-21T22:21:36.920Z,16.67
2019-02-21T22:24:03.442Z,17.40
2019-02-21T22:26:29.882Z,18.17
2019-02-21T22:28:56.260Z,19.20
2019-02-21T22:31:22.531Z,24.13
2019-02-21T22:33:48.979Z,18.77
2019-02-21T22:36:15.779Z,17.40
2019-02-21T22:38:42.523Z,16.90
2019-02-21T22:41:09.369Z,16.20
2019-02-21T22:43:35.843Z,16.73
2019-02-21T22:46:02.641Z,16.37
2019-02-21T22:48:29.385Z,17.93
2019-02-21T22:50:56.228Z,16.10
2019-02-21T22:53:22.603Z,16.37
2019-02-21T22:55:49.145Z,17.43
2019-02-21T22:58:15.755Z,16.50
2019-02-21T23:00:54.100Z,16.47
2019-02-21T23:03:44.294Z,16.57
2019-02-21T23:06:29.266Z,15.27
2019-02-21T23:08:55.679Z,15.73
2019-02-21T23:11:22.910Z,16.77
2019-02-21T23:13:49.861Z,15.30
2019-02-21T23:16:16.434Z,17.13
2019-02-21T23:18:42.838Z,16.10
2019-02-21T23:21:09.194Z,16.13
2019-02-21T23:23:35.907Z,17.17
2019-02-21T23:26:02.274Z,16.83
2019-02-21T23:28:28.845Z,16.07
2019-02-21T23:30:55.241Z,17.87
2019-02-21T23:33:23.252Z,16.63
2019-02-21T23:35:49.940Z,17.47
2019-02-21T23:38:16.357Z,19.10
2019-02-21T23:40:42.785Z,23.70
2019-02-21T23:43:10.279Z,20.47
2019-02-21T23:45:37.065Z,20.23
2019-02-21T23:48:03.766Z,21.27
2019-02-21T23:50:30.162Z,19.73
2019-02-21T23:52:56.527Z,20.17
2019-02-21T23:55:23.203Z,19.83
2019-02-21T23:57:50.707Z,20.03
